Accueil
METAR-TAF:

METAR-TAF

Aéroports :

Aéroport municipal Apalachicola

Apalachicola, Floride, États-Unis

latitude: 29-43-37N, longitude: 085-01-29W, altitude: 6 m

Observation

Le bulletin a été fait il y a 12 minutes, à 07:53 UTC
Vent 14 kt de sud avec des rafales jusqu'à 18 kt
Température 26°C
Humidité 84%
Pression 1016 hPa
Visibilité: 16.1 km
Nuages épars à une hauteur de 12000 ft

METAR: KAAF 290753Z AUTO 17014G18KT 10SM SCT120 26/23 A2999 RMK AO2 SLP157 T02560233 $

Heure: 04:05 (08:05 UTC)


TAF: absent

Observations et prévisions météorologiques de plus de 4000 aéroports (messages METAR et TAF).

Les stations disponibles sont représentées par des disques jaunes et rouges sur la carte.

Passer la souris dessus pour voir le nom de la station.

Cliquer dessus pour voir les observations et prévisions météorologiques.

Pour changer de carte: cliquez sur les boutons verts avec une croix noire pour zoomer, sur le bouton vert avec un tiret pour effectuer un zoom arrière, ou sur les flèches vertes pour les cartes adjacentes.


METAR-TAF: